Bertrix, Belgium
Current Conditions -  °F | °C
As of 11:25 AM on Friday 24 Oct 2014 (Local Time) from EBFS Reporting Station
Light Rain Light Rain  
Wind Chill: 10°   Ceiling: 3500
Heat Index: 10°   Visibility: 6mi
Dew Point:   Wind: 8mph
Humidity: 82%   Direction: 200°SSW
Pressure: 30.15"   Gusts: NA
Location:  49.86°N, 5.26°E
Report Text: EBFS 240925Z 20007KT 9999 -RA SCT030 BKN035 10/07 Q1021 BLU BLU TEMPO GRN
Loading
Personal Weather Stations






























Interactive Weather Map
Tropical Storm Tracking
New forecast layout! Learn more

10-Day Weather Forecast

Advertisements
Track Severe Weather on mobile